createdAt,value
2019-02-06T00:02:50.105Z,51.60
2019-02-06T00:05:51.996Z,50.83
2019-02-06T00:08:54.001Z,50.77
2019-02-06T00:11:55.913Z,53.50
2019-02-06T00:14:57.933Z,48.67
2019-02-06T00:17:59.973Z,44.90
2019-02-06T00:21:02.483Z,49.97
2019-02-06T00:24:05.659Z,55.60
2019-02-06T00:27:07.654Z,52.97
2019-02-06T00:30:12.240Z,58.37
2019-02-06T00:33:15.386Z,53.43
2019-02-06T00:36:17.302Z,49.40
2019-02-06T00:39:20.392Z,48.37
2019-02-06T00:42:22.291Z,51.00
2019-02-06T00:45:24.344Z,58.43
2019-02-06T00:48:26.283Z,53.93
2019-02-06T00:51:28.250Z,47.07
2019-02-06T00:54:30.134Z,50.37
2019-02-06T00:57:32.047Z,48.20
2019-02-06T01:00:34.014Z,43.17
2019-02-06T01:03:36.039Z,45.13
2019-02-06T01:06:37.948Z,44.50
2019-02-06T01:09:41.461Z,55.97
2019-02-06T01:12:43.746Z,50.33
2019-02-06T01:15:45.687Z,45.87
2019-02-06T01:18:47.608Z,48.73
2019-02-06T01:21:49.582Z,45.23
2019-02-06T01:24:51.508Z,58.83
2019-02-06T01:27:53.427Z,49.93
2019-02-06T01:30:57.172Z,44.70
2019-02-06T01:33:59.106Z,38.90
2019-02-06T01:37:01.320Z,39.83
2019-02-06T01:40:06.113Z,38.93
2019-02-06T01:43:08.325Z,33.07
2019-02-06T01:46:11.037Z,37.00
2019-02-06T01:49:13.055Z,44.70
2019-02-06T01:52:15.025Z,37.13
2019-02-06T01:55:16.973Z,37.40
2019-02-06T01:58:19.020Z,40.73
2019-02-06T02:01:21.023Z,37.10
2019-02-06T02:04:22.928Z,40.47
2019-02-06T02:07:24.902Z,39.37
2019-02-06T02:10:26.991Z,39.00
2019-02-06T02:13:28.891Z,41.00
2019-02-06T02:16:30.798Z,39.93
2019-02-06T02:19:32.735Z,39.47
2019-02-06T02:22:34.618Z,53.10
2019-02-06T02:25:36.529Z,60.07
2019-02-06T02:28:39.297Z,50.23
2019-02-06T02:31:41.216Z,73.70
2019-02-06T02:34:43.105Z,88.00
2019-02-06T02:37:45.059Z,64.97
2019-02-06T02:40:47.033Z,57.93
2019-02-06T02:43:49.024Z,43.93
2019-02-06T02:46:50.999Z,40.43
2019-02-06T02:49:52.976Z,39.77
2019-02-06T02:52:55.508Z,33.40
2019-02-06T02:55:57.636Z,35.37
2019-02-06T02:58:59.649Z,37.27
2019-02-06T03:02:06.310Z,48.80
2019-02-06T03:05:08.885Z,41.50
2019-02-06T03:08:10.769Z,39.17
2019-02-06T03:11:12.624Z,32.47
2019-02-06T03:14:14.541Z,28.43
2019-02-06T03:17:16.456Z,26.87
2019-02-06T03:20:18.502Z,35.00
2019-02-06T03:23:20.431Z,30.47
2019-02-06T03:26:22.362Z,31.83
2019-02-06T03:29:24.265Z,32.73
2019-02-06T03:32:26.140Z,37.53
2019-02-06T03:35:28.626Z,38.50
2019-02-06T03:38:30.622Z,38.27
2019-02-06T03:41:32.587Z,33.30
2019-02-06T03:44:34.516Z,37.50
2019-02-06T03:47:36.534Z,34.03
2019-02-06T03:50:38.483Z,29.60
2019-02-06T03:53:40.424Z,28.57
2019-02-06T03:56:42.305Z,32.60
2019-02-06T03:59:44.192Z,31.77
2019-02-06T04:02:46.203Z,32.70
2019-02-06T04:05:48.065Z,37.77
2019-02-06T04:08:50.333Z,33.63
2019-02-06T04:11:52.238Z,36.53
2019-02-06T04:14:54.158Z,43.10
2019-02-06T04:17:56.093Z,40.20
2019-02-06T04:20:58.078Z,39.37
2019-02-06T04:23:59.953Z,35.50
2019-02-06T04:27:01.938Z,40.63
2019-02-06T04:30:07.517Z,38.70
2019-02-06T04:33:09.496Z,35.63
2019-02-06T04:36:11.477Z,38.40
2019-02-06T04:39:13.828Z,41.37
2019-02-06T04:42:15.986Z,46.27
2019-02-06T04:45:18.563Z,41.63
2019-02-06T04:48:20.500Z,45.93
2019-02-06T04:51:22.660Z,38.17
2019-02-06T04:54:25.727Z,39.60
2019-02-06T04:57:27.701Z,46.60
2019-02-06T05:00:29.571Z,67.60
2019-02-06T05:03:31.496Z,89.17
2019-02-06T05:06:33.364Z,88.40
2019-02-06T05:09:35.345Z,103.00
2019-02-06T05:12:37.280Z,109.07
2019-02-06T05:15:39.511Z,81.13
2019-02-06T05:18:41.439Z,54.07
2019-02-06T05:21:43.478Z,48.40
2019-02-06T05:24:45.421Z,46.33
2019-02-06T05:27:47.453Z,45.63
2019-02-06T05:30:49.391Z,45.63
2019-02-06T05:33:51.266Z,43.40
2019-02-06T05:36:53.246Z,41.83
2019-02-06T05:39:55.235Z,38.13
2019-02-06T05:42:57.175Z,41.23
2019-02-06T05:45:59.050Z,39.57
2019-02-06T05:49:01.286Z,40.93
2019-02-06T05:52:03.496Z,36.77
2019-02-06T05:55:06.144Z,43.73
2019-02-06T05:58:08.023Z,46.47
2019-02-06T06:01:09.983Z,44.90
2019-02-06T06:04:11.872Z,39.03
2019-02-06T06:07:13.880Z,46.03
2019-02-06T06:10:17.713Z,50.73
2019-02-06T06:13:19.984Z,42.53
2019-02-06T06:16:21.881Z,47.67
2019-02-06T06:19:23.851Z,48.60
2019-02-06T06:22:25.868Z,44.20
2019-02-06T06:25:28.106Z,38.43
2019-02-06T06:28:30.247Z,37.50
2019-02-06T06:31:32.121Z,39.10
2019-02-06T06:34:34.057Z,39.93
2019-02-06T06:37:36.305Z,40.37
2019-02-06T06:40:39.524Z,50.97
2019-02-06T06:43:41.481Z,36.27
2019-02-06T06:46:43.911Z,50.07
2019-02-06T06:49:45.891Z,66.70
2019-02-06T06:52:47.850Z,150.23
2019-02-06T06:55:49.712Z,70.90
2019-02-06T06:58:51.635Z,63.30
2019-02-06T07:01:53.650Z,83.97
2019-02-06T07:04:55.565Z,98.50
2019-02-06T07:08:08.821Z,116.73
2019-02-06T07:11:01.267Z,116.50
2019-02-06T07:14:03.383Z,104.73
2019-02-06T07:17:05.239Z,107.20
2019-02-06T07:20:10.892Z,99.60
2019-02-06T07:23:13.907Z,81.83
2019-02-06T07:26:15.884Z,58.23
2019-02-06T07:29:18.168Z,53.47
2019-02-06T07:32:20.152Z,47.20
2019-02-06T07:35:22.624Z,46.30
2019-02-06T07:38:24.693Z,46.33
2019-02-06T07:41:26.753Z,40.23
2019-02-06T07:44:28.666Z,42.03
2019-02-06T07:47:30.520Z,47.57
2019-02-06T07:50:33.429Z,38.93
2019-02-06T07:53:35.415Z,36.93
2019-02-06T07:56:37.420Z,36.83
2019-02-06T07:59:39.300Z,34.43
2019-02-06T08:02:41.645Z,37.73
2019-02-06T08:05:43.674Z,33.73
2019-02-06T08:08:45.584Z,33.07
2019-02-06T08:11:47.496Z,31.50
2019-02-06T08:14:49.382Z,34.23
2019-02-06T08:17:51.492Z,32.73
2019-02-06T08:20:53.524Z,33.73
2019-02-06T08:23:55.531Z,31.47
2019-02-06T08:26:57.670Z,30.87
2019-02-06T08:29:59.573Z,34.67
2019-02-06T08:33:01.619Z,35.60
2019-02-06T08:36:04.050Z,37.33
2019-02-06T08:39:06.747Z,44.27
2019-02-06T08:42:08.675Z,38.20
2019-02-06T08:45:13.961Z,36.30
2019-02-06T08:48:15.909Z,43.47
2019-02-06T08:51:17.936Z,39.60
2019-02-06T08:54:20.446Z,28.03
2019-02-06T08:57:22.560Z,30.90
2019-02-06T09:00:30.043Z,27.10
2019-02-06T09:03:31.934Z,34.00
2019-02-06T09:06:33.995Z,33.73
2019-02-06T09:09:35.833Z,33.30
2019-02-06T09:12:37.743Z,27.80
2019-02-06T09:15:39.588Z,28.57
2019-02-06T09:18:41.804Z,29.07
2019-02-06T09:21:43.698Z,20.60
2019-02-06T09:24:45.649Z,22.10
2019-02-06T09:27:47.725Z,24.80
2019-02-06T09:30:49.710Z,23.10
2019-02-06T09:33:51.698Z,21.90
2019-02-06T09:36:53.607Z,20.40
2019-02-06T09:39:55.503Z,26.40
2019-02-06T09:42:57.528Z,24.27
2019-02-06T09:45:59.475Z,19.07
2019-02-06T09:49:01.514Z,17.37
2019-02-06T09:52:03.748Z,19.10
2019-02-06T09:55:06.030Z,18.83
2019-02-06T09:58:07.984Z,21.37
2019-02-06T10:01:09.907Z,18.20
2019-02-06T10:04:11.841Z,17.63
2019-02-06T10:07:13.733Z,14.47
2019-02-06T10:10:18.299Z,14.00
2019-02-06T10:13:20.256Z,14.70
2019-02-06T10:16:22.183Z,15.53
2019-02-06T10:19:24.102Z,17.67
2019-02-06T10:22:25.987Z,19.90
2019-02-06T10:25:29.400Z,18.87
2019-02-06T10:28:31.285Z,22.27
2019-02-06T10:31:33.228Z,22.97
2019-02-06T10:34:35.116Z,19.53
2019-02-06T10:37:37.627Z,19.57
2019-02-06T10:40:39.534Z,17.03
2019-02-06T10:43:42.518Z,16.47
2019-02-06T10:46:44.473Z,14.17
2019-02-06T10:49:46.599Z,11.63
2019-02-06T10:52:49.656Z,12.00
2019-02-06T10:55:51.700Z,13.23
2019-02-06T10:58:54.041Z,13.80
2019-02-06T11:01:56.133Z,16.17
2019-02-06T11:04:58.112Z,15.57
2019-02-06T11:08:00.181Z,16.77
2019-02-06T11:11:02.067Z,16.70
2019-02-06T11:14:04.266Z,17.30
2019-02-06T11:17:06.230Z,20.70
2019-02-06T11:20:14.820Z,25.30
2019-02-06T11:23:16.683Z,23.00
2019-02-06T11:26:18.668Z,21.77
2019-02-06T11:29:20.550Z,23.53
2019-02-06T11:32:23.110Z,24.90
2019-02-06T11:35:24.997Z,18.33
2019-02-06T11:38:28.057Z,25.20
2019-02-06T11:41:30.073Z,24.20
2019-02-06T11:44:33.351Z,25.67
2019-02-06T11:47:35.218Z,24.67
2019-02-06T11:50:39.039Z,31.50
2019-02-06T11:53:41.150Z,33.50
2019-02-06T11:56:43.156Z,34.93
2019-02-06T11:59:45.084Z,33.80
2019-02-06T12:02:46.989Z,33.63
2019-02-06T12:05:48.964Z,31.73
2019-02-06T12:08:50.969Z,28.00
2019-02-06T12:11:53.034Z,30.60
2019-02-06T12:14:54.963Z,29.97
2019-02-06T12:17:56.924Z,33.87
2019-02-06T12:20:58.883Z,37.23
2019-02-06T12:24:01.330Z,27.83
2019-02-06T12:27:03.542Z,32.67
2019-02-06T12:30:15.053Z,31.40
2019-02-06T12:33:17.274Z,33.77
2019-02-06T12:36:19.128Z,32.67
2019-02-06T12:39:22.783Z,29.73
2019-02-06T12:42:24.894Z,29.63
2019-02-06T12:45:26.812Z,32.57
2019-02-06T12:48:29.202Z,37.47
2019-02-06T12:51:31.582Z,31.90
2019-02-06T12:54:33.640Z,34.07
2019-02-06T12:57:37.442Z,34.67
2019-02-06T13:00:41.644Z,32.00
2019-02-06T13:03:43.682Z,29.80
2019-02-06T13:06:47.885Z,33.53
2019-02-06T13:09:50.702Z,33.50
2019-02-06T13:12:52.731Z,34.47
2019-02-06T13:15:54.618Z,29.77
2019-02-06T13:18:56.546Z,27.63
2019-02-06T13:21:58.431Z,28.33
2019-02-06T13:25:00.377Z,25.70
2019-02-06T13:28:03.117Z,26.70
2019-02-06T13:31:05.595Z,23.00
2019-02-06T13:34:07.681Z,27.50
2019-02-06T13:37:09.604Z,25.87
2019-02-06T13:40:16.992Z,28.83
2019-02-06T13:43:18.990Z,24.53
2019-02-06T13:46:20.974Z,26.10
2019-02-06T13:49:22.831Z,26.23
2019-02-06T13:52:28.204Z,27.53
2019-02-06T13:55:31.431Z,27.10
2019-02-06T13:58:33.482Z,24.37
2019-02-06T14:01:37.217Z,22.10
2019-02-06T14:04:42.231Z,21.00
2019-02-06T14:07:44.114Z,34.83
2019-02-06T14:10:58.452Z,29.03
2019-02-06T14:13:54.719Z,28.20
2019-02-06T14:16:58.253Z,29.70
2019-02-06T14:20:01.369Z,34.27
2019-02-06T14:23:16.160Z,29.23
2019-02-06T14:26:27.828Z,30.97
2019-02-06T14:29:42.739Z,30.73
2019-02-06T14:33:01.156Z,32.23
2019-02-06T14:36:33.559Z,33.93
2019-02-06T14:39:43.643Z,33.73
2019-02-06T14:42:55.581Z,30.97
2019-02-06T14:46:29.159Z,34.00
2019-02-06T14:49:40.911Z,30.97
2019-02-06T14:52:50.085Z,35.63
2019-02-06T14:56:13.874Z,37.20
2019-02-06T14:59:27.646Z,42.80
2019-02-06T15:02:42.520Z,67.67
2019-02-06T15:06:03.053Z,51.80
2019-02-06T15:09:42.805Z,47.17
2019-02-06T15:12:53.981Z,38.07
2019-02-06T15:15:59.797Z,43.07
2019-02-06T15:19:11.663Z,45.37
2019-02-06T15:22:37.194Z,48.70
2019-02-06T15:25:42.712Z,45.60
2019-02-06T15:29:00.256Z,47.93
2019-02-06T15:32:14.604Z,45.70
2019-02-06T15:35:32.620Z,35.20
2019-02-06T15:38:41.141Z,33.80
2019-02-06T15:41:58.976Z,30.77
2019-02-06T15:45:16.710Z,27.43
2019-02-06T15:48:28.515Z,32.93
2019-02-06T15:51:43.079Z,26.63
2019-02-06T15:55:13.894Z,34.17
2019-02-06T15:58:22.455Z,32.33
2019-02-06T16:01:43.309Z,54.33
2019-02-06T16:05:05.572Z,47.77
2019-02-06T16:08:13.932Z,36.60
2019-02-06T16:11:42.386Z,42.40
2019-02-06T16:14:43.899Z,42.57
2019-02-06T16:18:01.712Z,43.23
2019-02-06T16:21:23.725Z,35.13
2019-02-06T16:24:34.955Z,46.77
2019-02-06T16:27:43.490Z,40.20
2019-02-06T16:30:58.084Z,48.83
2019-02-06T16:34:28.102Z,43.37
2019-02-06T16:37:46.924Z,49.33
2019-02-06T16:41:01.276Z,52.73
2019-02-06T16:44:40.514Z,66.23
2019-02-06T16:47:58.328Z,55.77
2019-02-06T16:51:08.272Z,57.13
2019-02-06T16:54:14.251Z,67.30
2019-02-06T16:57:32.838Z,89.20
2019-02-06T17:00:50.514Z,88.13
2019-02-06T17:04:14.299Z,127.63
2019-02-06T17:07:25.735Z,112.07
2019-02-06T17:10:55.541Z,78.90
2019-02-06T17:14:29.996Z,73.80
2019-02-06T17:17:50.379Z,69.73
2019-02-06T17:21:18.339Z,72.17
2019-02-06T17:24:45.179Z,76.97
2019-02-06T17:28:17.472Z,105.33
2019-02-06T17:31:29.796Z,79.33
2019-02-06T17:34:53.127Z,71.87
2019-02-06T17:38:17.279Z,95.63
2019-02-06T17:41:27.267Z,71.67
2019-02-06T17:45:08.521Z,84.17
2019-02-06T17:48:31.130Z,66.87
2019-02-06T17:52:00.323Z,63.00
2019-02-06T17:55:18.489Z,65.37
2019-02-06T17:58:20.461Z,70.90
2019-02-06T18:01:26.218Z,65.57
2019-02-06T18:04:29.277Z,71.87
2019-02-06T18:07:31.792Z,62.47
2019-02-06T18:10:34.093Z,69.63
2019-02-06T18:13:37.346Z,55.17
2019-02-06T18:16:39.971Z,56.60
2019-02-06T18:19:42.319Z,63.00
2019-02-06T18:22:44.287Z,69.87
2019-02-06T18:25:46.592Z,81.27
2019-02-06T18:28:52.947Z,81.70
2019-02-06T18:31:57.071Z,89.87
2019-02-06T18:34:58.963Z,89.50
2019-02-06T18:38:03.270Z,83.50
2019-02-06T18:41:05.858Z,95.13
2019-02-06T18:44:08.292Z,104.30
2019-02-06T18:47:10.614Z,93.13
2019-02-06T18:50:31.146Z,83.03
2019-02-06T18:53:33.631Z,81.83
2019-02-06T18:56:37.234Z,87.50
2019-02-06T18:59:39.823Z,90.83
2019-02-06T19:02:42.290Z,83.03
2019-02-06T19:05:45.760Z,75.73
2019-02-06T19:08:48.274Z,79.87
2019-02-06T19:11:54.257Z,73.60
2019-02-06T19:14:58.870Z,70.90
2019-02-06T19:18:00.766Z,69.27
2019-02-06T19:21:17.314Z,73.30
2019-02-06T19:24:21.469Z,67.33
2019-02-06T19:27:24.493Z,73.57
2019-02-06T19:30:32.493Z,69.93
2019-02-06T19:33:34.446Z,89.87
2019-02-06T19:36:38.250Z,93.07
2019-02-06T19:39:40.394Z,83.73
2019-02-06T19:42:42.940Z,86.70
2019-02-06T19:45:44.968Z,85.67
2019-02-06T19:48:49.074Z,75.93
2019-02-06T19:51:51.366Z,77.93
2019-02-06T19:54:55.113Z,76.67
2019-02-06T19:57:59.311Z,85.57
2019-02-06T20:01:03.920Z,75.07
2019-02-06T20:04:08.273Z,92.73
2019-02-06T20:07:10.688Z,85.13
2019-02-06T20:10:20.290Z,83.00
2019-02-06T20:13:25.163Z,82.57
2019-02-06T20:16:27.803Z,83.33
2019-02-06T20:19:29.815Z,75.70
2019-02-06T20:22:32.547Z,84.33
2019-02-06T20:25:37.138Z,79.20
2019-02-06T20:28:39.187Z,79.77
2019-02-06T20:31:41.165Z,70.17
2019-02-06T20:34:43.494Z,77.20
2019-02-06T20:37:48.704Z,72.67
2019-02-06T20:40:51.056Z,75.57
2019-02-06T20:43:52.921Z,81.57
2019-02-06T20:46:58.811Z,59.30
2019-02-06T20:50:05.615Z,70.17
2019-02-06T20:53:09.845Z,64.17
2019-02-06T20:56:11.771Z,77.43
2019-02-06T20:59:14.098Z,68.00
2019-02-06T21:02:17.108Z,63.17
2019-02-06T21:05:19.234Z,77.40
2019-02-06T21:08:22.557Z,66.80
2019-02-06T21:11:24.829Z,64.40
2019-02-06T21:14:26.749Z,69.40
2019-02-06T21:17:30.524Z,72.77
2019-02-06T21:20:36.005Z,73.40
2019-02-06T21:23:38.001Z,87.43
2019-02-06T21:26:44.513Z,96.03
2019-02-06T21:29:47.199Z,89.00
2019-02-06T21:32:50.960Z,101.43
2019-02-06T21:35:54.757Z,109.27
2019-02-06T21:38:56.696Z,92.93
2019-02-06T21:42:02.300Z,85.50
2019-02-06T21:45:08.942Z,92.97
2019-02-06T21:48:11.359Z,93.70
2019-02-06T21:51:13.789Z,104.83
2019-02-06T21:54:15.754Z,92.37
2019-02-06T21:57:17.664Z,118.90
2019-02-06T22:00:31.987Z,103.63
2019-02-06T22:03:33.931Z,95.90
2019-02-06T22:06:35.962Z,90.50
2019-02-06T22:09:38.018Z,91.83
2019-02-06T22:12:40.008Z,112.30
2019-02-06T22:15:41.934Z,102.00
2019-02-06T22:18:44.134Z,93.83
2019-02-06T22:21:46.114Z,97.00
2019-02-06T22:24:48.077Z,100.67
2019-02-06T22:27:50.782Z,100.47
2019-02-06T22:30:53.209Z,105.57
2019-02-06T22:33:55.176Z,113.70
2019-02-06T22:36:57.039Z,109.67
2019-02-06T22:39:58.980Z,108.67
2019-02-06T22:43:00.928Z,101.30
2019-02-06T22:46:02.872Z,88.27
2019-02-06T22:49:04.797Z,92.03
2019-02-06T22:52:06.938Z,86.40
2019-02-06T22:55:10.843Z,84.07
2019-02-06T22:58:12.731Z,82.83
2019-02-06T23:01:18.451Z,95.43
2019-02-06T23:04:20.377Z,73.80
2019-02-06T23:07:22.476Z,95.40
2019-02-06T23:10:25.017Z,107.83
2019-02-06T23:13:26.955Z,105.77
2019-02-06T23:16:28.927Z,97.93
2019-02-06T23:19:30.873Z,105.73
2019-02-06T23:22:32.913Z,102.53
2019-02-06T23:25:34.869Z,112.47
2019-02-06T23:28:36.827Z,98.80
2019-02-06T23:31:38.866Z,104.63
2019-02-06T23:34:40.831Z,105.40
2019-02-06T23:37:42.771Z,80.33
2019-02-06T23:40:44.772Z,115.23
2019-02-06T23:43:46.679Z,110.40
2019-02-06T23:46:48.628Z,106.47
2019-02-06T23:49:50.556Z,97.93
2019-02-06T23:52:52.887Z,116.63
2019-02-06T23:55:54.792Z,111.67
2019-02-06T23:58:58.635Z,107.60
